sensor_id;sensor_type;location;lat;lon;timestamp;P1;durP1;ratioP1;P2;durP2;ratioP2
5882;SDS011;2967;51.488;6.618;2022-12-18T00:04:18;15.40;;;10.37;;
5882;SDS011;2967;51.488;6.618;2022-12-18T00:09:24;14.10;;;10.40;;
5882;SDS011;2967;51.488;6.618;2022-12-18T00:14:41;15.70;;;10.50;;
5882;SDS011;2967;51.488;6.618;2022-12-18T00:19:44;15.03;;;10.57;;
5882;SDS011;2967;51.488;6.618;2022-12-18T00:24:46;14.30;;;10.60;;
5882;SDS011;2967;51.488;6.618;2022-12-18T00:29:50;13.00;;;10.20;;
5882;SDS011;2967;51.488;6.618;2022-12-18T00:34:53;12.38;;;9.60;;
5882;SDS011;2967;51.488;6.618;2022-12-18T00:39:56;15.30;;;10.33;;
5882;SDS011;2967;51.488;6.618;2022-12-18T00:45:00;14.33;;;10.30;;
5882;SDS011;2967;51.488;6.618;2022-12-18T00:50:06;15.13;;;10.32;;
5882;SDS011;2967;51.488;6.618;2022-12-18T00:55:09;16.52;;;10.10;;
5882;SDS011;2967;51.488;6.618;2022-12-18T01:00:14;14.37;;;9.70;;
5882;SDS011;2967;51.488;6.618;2022-12-18T01:05:17;14.60;;;10.43;;
5882;SDS011;2967;51.488;6.618;2022-12-18T01:10:20;13.88;;;10.20;;
5882;SDS011;2967;51.488;6.618;2022-12-18T01:15:24;17.67;;;11.00;;
5882;SDS011;2967;51.488;6.618;2022-12-18T01:20:27;16.25;;;10.85;;
5882;SDS011;2967;51.488;6.618;2022-12-18T01:25:31;16.23;;;10.90;;
5882;SDS011;2967;51.488;6.618;2022-12-18T01:30:35;14.85;;;10.85;;
5882;SDS011;2967;51.488;6.618;2022-12-18T01:35:39;18.42;;;11.25;;
5882;SDS011;2967;51.488;6.618;2022-12-18T01:40:43;17.43;;;11.80;;
5882;SDS011;2967;51.488;6.618;2022-12-18T01:45:46;16.48;;;11.10;;
5882;SDS011;2967;51.488;6.618;2022-12-18T01:50:49;16.60;;;11.10;;
5882;SDS011;2967;51.488;6.618;2022-12-18T01:55:53;15.75;;;11.40;;
5882;SDS011;2967;51.488;6.618;2022-12-18T02:01:00;13.95;;;11.27;;
5882;SDS011;2967;51.488;6.618;2022-12-18T02:06:08;16.20;;;11.77;;
5882;SDS011;2967;51.488;6.618;2022-12-18T02:11:18;16.42;;;12.25;;
5882;SDS011;2967;51.488;6.618;2022-12-18T02:16:29;19.85;;;12.02;;
5882;SDS011;2967;51.488;6.618;2022-12-18T02:21:40;15.77;;;10.95;;
5882;SDS011;2967;51.488;6.618;2022-12-18T02:26:55;17.60;;;11.63;;
5882;SDS011;2967;51.488;6.618;2022-12-18T02:32:03;15.07;;;11.75;;
5882;SDS011;2967;51.488;6.618;2022-12-18T02:37:12;16.48;;;11.38;;
5882;SDS011;2967;51.488;6.618;2022-12-18T02:42:19;15.27;;;11.15;;
5882;SDS011;2967;51.488;6.618;2022-12-18T02:47:23;16.60;;;11.20;;
5882;SDS011;2967;51.488;6.618;2022-12-18T02:52:31;17.20;;;11.40;;
5882;SDS011;2967;51.488;6.618;2022-12-18T02:57:44;18.53;;;12.00;;
5882;SDS011;2967;51.488;6.618;2022-12-18T03:02:55;15.63;;;10.52;;
5882;SDS011;2967;51.488;6.618;2022-12-18T03:08:03;16.95;;;11.70;;
5882;SDS011;2967;51.488;6.618;2022-12-18T03:13:15;18.52;;;11.75;;
5882;SDS011;2967;51.488;6.618;2022-12-18T03:18:23;18.83;;;12.13;;
5882;SDS011;2967;51.488;6.618;2022-12-18T03:23:29;19.15;;;11.77;;
5882;SDS011;2967;51.488;6.618;2022-12-18T03:28:40;17.33;;;11.65;;
5882;SDS011;2967;51.488;6.618;2022-12-18T03:33:51;17.42;;;11.50;;
5882;SDS011;2967;51.488;6.618;2022-12-18T03:39:01;19.27;;;12.32;;
5882;SDS011;2967;51.488;6.618;2022-12-18T03:44:10;18.33;;;12.20;;
5882;SDS011;2967;51.488;6.618;2022-12-18T03:49:19;18.17;;;12.48;;
5882;SDS011;2967;51.488;6.618;2022-12-18T03:54:29;20.52;;;12.93;;
5882;SDS011;2967;51.488;6.618;2022-12-18T03:59:43;21.90;;;13.20;;
5882;SDS011;2967;51.488;6.618;2022-12-18T04:04:51;18.83;;;12.80;;
5882;SDS011;2967;51.488;6.618;2022-12-18T04:09:56;23.30;;;14.40;;
5882;SDS011;2967;51.488;6.618;2022-12-18T04:15:06;23.40;;;14.32;;
5882;SDS011;2967;51.488;6.618;2022-12-18T04:20:10;18.27;;;12.40;;
5882;SDS011;2967;51.488;6.618;2022-12-18T04:25:17;19.23;;;12.80;;
5882;SDS011;2967;51.488;6.618;2022-12-18T04:30:40;19.50;;;13.00;;
5882;SDS011;2967;51.488;6.618;2022-12-18T04:35:43;20.50;;;14.43;;
5882;SDS011;2967;51.488;6.618;2022-12-18T04:40:47;22.23;;;13.05;;
5882;SDS011;2967;51.488;6.618;2022-12-18T04:46:02;24.55;;;13.30;;
5882;SDS011;2967;51.488;6.618;2022-12-18T04:51:05;18.63;;;12.40;;
5882;SDS011;2967;51.488;6.618;2022-12-18T04:56:09;21.35;;;12.52;;
5882;SDS011;2967;51.488;6.618;2022-12-18T05:01:15;16.27;;;11.18;;
5882;SDS011;2967;51.488;6.618;2022-12-18T05:06:19;14.80;;;10.73;;
5882;SDS011;2967;51.488;6.618;2022-12-18T05:11:22;15.25;;;9.88;;
5882;SDS011;2967;51.488;6.618;2022-12-18T05:16:26;13.85;;;9.45;;
5882;SDS011;2967;51.488;6.618;2022-12-18T05:21:29;13.57;;;9.00;;
5882;SDS011;2967;51.488;6.618;2022-12-18T05:26:32;13.30;;;9.20;;
5882;SDS011;2967;51.488;6.618;2022-12-18T05:31:36;15.20;;;9.40;;
5882;SDS011;2967;51.488;6.618;2022-12-18T05:36:40;12.00;;;8.38;;
5882;SDS011;2967;51.488;6.618;2022-12-18T05:41:43;11.65;;;8.63;;
5882;SDS011;2967;51.488;6.618;2022-12-18T05:46:47;10.27;;;8.07;;
5882;SDS011;2967;51.488;6.618;2022-12-18T05:51:50;12.30;;;8.70;;
5882;SDS011;2967;51.488;6.618;2022-12-18T05:56:52;16.33;;;9.98;;
5882;SDS011;2967;51.488;6.618;2022-12-18T06:01:57;13.32;;;9.80;;
5882;SDS011;2967;51.488;6.618;2022-12-18T06:06:59;12.50;;;9.70;;
5882;SDS011;2967;51.488;6.618;2022-12-18T06:12:02;13.70;;;9.52;;
5882;SDS011;2967;51.488;6.618;2022-12-18T06:17:06;11.88;;;8.70;;
5882;SDS011;2967;51.488;6.618;2022-12-18T06:22:09;11.10;;;8.37;;
5882;SDS011;2967;51.488;6.618;2022-12-18T06:27:11;11.95;;;8.70;;
5882;SDS011;2967;51.488;6.618;2022-12-18T06:32:16;11.97;;;8.53;;
5882;SDS011;2967;51.488;6.618;2022-12-18T06:37:18;10.90;;;8.10;;
5882;SDS011;2967;51.488;6.618;2022-12-18T06:42:21;10.82;;;8.50;;
5882;SDS011;2967;51.488;6.618;2022-12-18T06:47:26;9.57;;;7.75;;
5882;SDS011;2967;51.488;6.618;2022-12-18T06:52:29;12.00;;;8.70;;
5882;SDS011;2967;51.488;6.618;2022-12-18T06:57:34;12.67;;;9.10;;
5882;SDS011;2967;51.488;6.618;2022-12-18T07:02:38;11.07;;;8.23;;
5882;SDS011;2967;51.488;6.618;2022-12-18T07:07:41;10.60;;;8.00;;
5882;SDS011;2967;51.488;6.618;2022-12-18T07:12:44;11.47;;;8.67;;
5882;SDS011;2967;51.488;6.618;2022-12-18T07:17:48;12.80;;;8.25;;
5882;SDS011;2967;51.488;6.618;2022-12-18T07:22:51;10.38;;;7.30;;
5882;SDS011;2967;51.488;6.618;2022-12-18T07:27:56;10.40;;;7.35;;
5882;SDS011;2967;51.488;6.618;2022-12-18T07:33:00;10.30;;;7.10;;
5882;SDS011;2967;51.488;6.618;2022-12-18T07:38:03;9.50;;;7.70;;
5882;SDS011;2967;51.488;6.618;2022-12-18T07:43:05;11.70;;;8.13;;
5882;SDS011;2967;51.488;6.618;2022-12-18T07:48:09;11.85;;;7.90;;
5882;SDS011;2967;51.488;6.618;2022-12-18T07:53:12;56.70;;;35.53;;
5882;SDS011;2967;51.488;6.618;2022-12-18T07:58:15;11.60;;;8.82;;
5882;SDS011;2967;51.488;6.618;2022-12-18T08:03:19;14.00;;;9.18;;
5882;SDS011;2967;51.488;6.618;2022-12-18T08:08:23;15.32;;;9.50;;
5882;SDS011;2967;51.488;6.618;2022-12-18T08:13:25;39.83;;;25.27;;
5882;SDS011;2967;51.488;6.618;2022-12-18T08:18:31;17.13;;;10.70;;
5882;SDS011;2967;51.488;6.618;2022-12-18T08:23:36;19.48;;;10.75;;
5882;SDS011;2967;51.488;6.618;2022-12-18T08:28:43;14.77;;;10.25;;
5882;SDS011;2967;51.488;6.618;2022-12-18T08:33:49;14.27;;;9.48;;
5882;SDS011;2967;51.488;6.618;2022-12-18T08:38:52;14.20;;;8.73;;
5882;SDS011;2967;51.488;6.618;2022-12-18T08:43:55;15.05;;;8.23;;
5882;SDS011;2967;51.488;6.618;2022-12-18T08:49:17;34.53;;;23.55;;
5882;SDS011;2967;51.488;6.618;2022-12-18T08:54:19;17.27;;;10.50;;
5882;SDS011;2967;51.488;6.618;2022-12-18T08:59:22;13.70;;;9.40;;
5882;SDS011;2967;51.488;6.618;2022-12-18T09:04:29;14.48;;;9.40;;
5882;SDS011;2967;51.488;6.618;2022-12-18T09:09:31;13.82;;;9.55;;
5882;SDS011;2967;51.488;6.618;2022-12-18T09:14:35;17.25;;;12.10;;
5882;SDS011;2967;51.488;6.618;2022-12-18T09:19:39;17.02;;;11.15;;
5882;SDS011;2967;51.488;6.618;2022-12-18T09:24:42;15.63;;;10.90;;
5882;SDS011;2967;51.488;6.618;2022-12-18T09:29:44;16.23;;;11.00;;
5882;SDS011;2967;51.488;6.618;2022-12-18T09:34:48;17.25;;;9.77;;
5882;SDS011;2967;51.488;6.618;2022-12-18T09:39:51;12.35;;;9.27;;
5882;SDS011;2967;51.488;6.618;2022-12-18T09:44:54;16.40;;;10.57;;
5882;SDS011;2967;51.488;6.618;2022-12-18T09:49:58;14.90;;;10.40;;
5882;SDS011;2967;51.488;6.618;2022-12-18T09:55:05;36.75;;;24.88;;
5882;SDS011;2967;51.488;6.618;2022-12-18T10:00:15;15.65;;;10.50;;
5882;SDS011;2967;51.488;6.618;2022-12-18T10:05:28;12.32;;;8.90;;
5882;SDS011;2967;51.488;6.618;2022-12-18T10:10:39;13.40;;;9.00;;
5882;SDS011;2967;51.488;6.618;2022-12-18T10:15:54;14.57;;;9.70;;
5882;SDS011;2967;51.488;6.618;2022-12-18T10:21:07;16.40;;;10.40;;
5882;SDS011;2967;51.488;6.618;2022-12-18T10:26:14;19.88;;;11.50;;
5882;SDS011;2967;51.488;6.618;2022-12-18T10:31:19;14.90;;;9.88;;
5882;SDS011;2967;51.488;6.618;2022-12-18T10:36:26;17.10;;;11.65;;
5882;SDS011;2967;51.488;6.618;2022-12-18T10:41:29;14.70;;;10.17;;
5882;SDS011;2967;51.488;6.618;2022-12-18T10:46:33;12.35;;;8.95;;
5882;SDS011;2967;51.488;6.618;2022-12-18T10:51:37;18.05;;;10.10;;
5882;SDS011;2967;51.488;6.618;2022-12-18T10:56:40;14.93;;;9.60;;
5882;SDS011;2967;51.488;6.618;2022-12-18T11:01:45;20.00;;;9.98;;
5882;SDS011;2967;51.488;6.618;2022-12-18T11:06:58;12.68;;;9.40;;
5882;SDS011;2967;51.488;6.618;2022-12-18T11:12:04;26.80;;;18.05;;
5882;SDS011;2967;51.488;6.618;2022-12-18T11:17:18;15.50;;;10.05;;
5882;SDS011;2967;51.488;6.618;2022-12-18T11:22:28;17.33;;;10.85;;
5882;SDS011;2967;51.488;6.618;2022-12-18T11:27:32;19.55;;;11.38;;
5882;SDS011;2967;51.488;6.618;2022-12-18T11:32:35;19.63;;;11.02;;
5882;SDS011;2967;51.488;6.618;2022-12-18T11:37:43;17.42;;;11.57;;
5882;SDS011;2967;51.488;6.618;2022-12-18T11:42:51;19.45;;;11.95;;
5882;SDS011;2967;51.488;6.618;2022-12-18T11:48:01;26.58;;;19.20;;
5882;SDS011;2967;51.488;6.618;2022-12-18T11:53:10;15.57;;;11.30;;
5882;SDS011;2967;51.488;6.618;2022-12-18T11:58:16;15.82;;;10.70;;
5882;SDS011;2967;51.488;6.618;2022-12-18T12:03:47;17.85;;;11.48;;
5882;SDS011;2967;51.488;6.618;2022-12-18T12:09:04;15.77;;;11.27;;
5882;SDS011;2967;51.488;6.618;2022-12-18T12:14:19;22.10;;;14.40;;
5882;SDS011;2967;51.488;6.618;2022-12-18T12:19:37;18.27;;;11.80;;
5882;SDS011;2967;51.488;6.618;2022-12-18T12:24:52;18.65;;;11.90;;
5882;SDS011;2967;51.488;6.618;2022-12-18T12:30:18;21.70;;;13.00;;
5882;SDS011;2967;51.488;6.618;2022-12-18T12:35:30;19.33;;;12.75;;
5882;SDS011;2967;51.488;6.618;2022-12-18T12:40:44;21.63;;;12.98;;
5882;SDS011;2967;51.488;6.618;2022-12-18T12:45:57;17.23;;;13.30;;
5882;SDS011;2967;51.488;6.618;2022-12-18T12:51:04;19.88;;;13.10;;
5882;SDS011;2967;51.488;6.618;2022-12-18T12:56:15;19.88;;;13.30;;
5882;SDS011;2967;51.488;6.618;2022-12-18T13:01:25;20.35;;;13.50;;
5882;SDS011;2967;51.488;6.618;2022-12-18T13:06:37;19.98;;;13.73;;
5882;SDS011;2967;51.488;6.618;2022-12-18T13:11:48;21.33;;;13.83;;
5882;SDS011;2967;51.488;6.618;2022-12-18T13:17:15;34.83;;;22.92;;
5882;SDS011;2967;51.488;6.618;2022-12-18T13:22:28;23.10;;;14.80;;
5882;SDS011;2967;51.488;6.618;2022-12-18T13:58:13;23.88;;;14.70;;
5882;SDS011;2967;51.488;6.618;2022-12-18T14:03:22;18.92;;;13.50;;
5882;SDS011;2967;51.488;6.618;2022-12-18T14:08:30;21.63;;;13.93;;
5882;SDS011;2967;51.488;6.618;2022-12-18T14:20:26;22.38;;;14.20;;
5882;SDS011;2967;51.488;6.618;2022-12-18T14:25:30;26.43;;;15.87;;
5882;SDS011;2967;51.488;6.618;2022-12-18T14:30:35;22.80;;;15.02;;
5882;SDS011;2967;51.488;6.618;2022-12-18T14:35:41;26.45;;;15.90;;
5882;SDS011;2967;51.488;6.618;2022-12-18T14:40:55;26.15;;;16.25;;
5882;SDS011;2967;51.488;6.618;2022-12-18T14:46:02;28.98;;;17.27;;
5882;SDS011;2967;51.488;6.618;2022-12-18T14:51:14;24.27;;;16.23;;
5882;SDS011;2967;51.488;6.618;2022-12-18T14:56:19;59.25;;;40.15;;
5882;SDS011;2967;51.488;6.618;2022-12-18T15:01:25;26.83;;;17.38;;
5882;SDS011;2967;51.488;6.618;2022-12-18T15:06:32;30.80;;;17.00;;
5882;SDS011;2967;51.488;6.618;2022-12-18T15:11:46;25.60;;;17.17;;
5882;SDS011;2967;51.488;6.618;2022-12-18T15:16:50;23.75;;;16.83;;
5882;SDS011;2967;51.488;6.618;2022-12-18T15:21:56;24.55;;;17.40;;
5882;SDS011;2967;51.488;6.618;2022-12-18T15:27:18;28.85;;;17.70;;
5882;SDS011;2967;51.488;6.618;2022-12-18T15:32:23;24.13;;;17.17;;
5882;SDS011;2967;51.488;6.618;2022-12-18T15:37:27;25.83;;;17.60;;
5882;SDS011;2967;51.488;6.618;2022-12-18T15:42:29;38.22;;;27.40;;
5882;SDS011;2967;51.488;6.618;2022-12-18T15:48:02;23.88;;;17.35;;
5882;SDS011;2967;51.488;6.618;2022-12-18T15:53:08;25.23;;;17.55;;
5882;SDS011;2967;51.488;6.618;2022-12-18T15:58:11;22.75;;;16.90;;
5882;SDS011;2967;51.488;6.618;2022-12-18T16:03:15;24.50;;;17.60;;
5882;SDS011;2967;51.488;6.618;2022-12-18T16:08:20;24.77;;;19.05;;
5882;SDS011;2967;51.488;6.618;2022-12-18T16:13:23;31.00;;;22.73;;
5882;SDS011;2967;51.488;6.618;2022-12-18T16:18:27;24.42;;;18.20;;
5882;SDS011;2967;51.488;6.618;2022-12-18T16:23:31;27.67;;;18.65;;
5882;SDS011;2967;51.488;6.618;2022-12-18T16:28:34;28.75;;;19.30;;
5882;SDS011;2967;51.488;6.618;2022-12-18T16:33:37;24.63;;;19.38;;
5882;SDS011;2967;51.488;6.618;2022-12-18T16:38:41;27.83;;;19.27;;
5882;SDS011;2967;51.488;6.618;2022-12-18T16:43:44;25.47;;;19.07;;
5882;SDS011;2967;51.488;6.618;2022-12-18T16:48:56;27.42;;;19.27;;
5882;SDS011;2967;51.488;6.618;2022-12-18T16:54:00;28.35;;;20.30;;
5882;SDS011;2967;51.488;6.618;2022-12-18T16:59:10;28.05;;;19.90;;
5882;SDS011;2967;51.488;6.618;2022-12-18T17:04:13;28.30;;;20.20;;
5882;SDS011;2967;51.488;6.618;2022-12-18T17:09:18;28.98;;;21.42;;
5882;SDS011;2967;51.488;6.618;2022-12-18T17:14:23;29.60;;;20.83;;
5882;SDS011;2967;51.488;6.618;2022-12-18T17:19:26;28.70;;;20.83;;
5882;SDS011;2967;51.488;6.618;2022-12-18T17:24:31;34.83;;;22.77;;
5882;SDS011;2967;51.488;6.618;2022-12-18T17:29:36;27.92;;;20.70;;
5882;SDS011;2967;51.488;6.618;2022-12-18T17:34:47;31.30;;;22.55;;
5882;SDS011;2967;51.488;6.618;2022-12-18T17:39:51;30.27;;;22.90;;
5882;SDS011;2967;51.488;6.618;2022-12-18T17:44:54;31.53;;;23.10;;
5882;SDS011;2967;51.488;6.618;2022-12-18T17:49:57;34.00;;;22.90;;
5882;SDS011;2967;51.488;6.618;2022-12-18T17:55:01;31.30;;;22.80;;
5882;SDS011;2967;51.488;6.618;2022-12-18T18:00:03;33.03;;;23.02;;
5882;SDS011;2967;51.488;6.618;2022-12-18T18:05:09;32.55;;;23.40;;
5882;SDS011;2967;51.488;6.618;2022-12-18T18:10:16;32.10;;;23.47;;
5882;SDS011;2967;51.488;6.618;2022-12-18T18:15:19;35.05;;;24.85;;
5882;SDS011;2967;51.488;6.618;2022-12-18T18:20:22;35.60;;;24.60;;
5882;SDS011;2967;51.488;6.618;2022-12-18T18:25:26;36.47;;;25.23;;
5882;SDS011;2967;51.488;6.618;2022-12-18T18:30:29;35.85;;;25.45;;
5882;SDS011;2967;51.488;6.618;2022-12-18T18:35:32;35.87;;;25.27;;
5882;SDS011;2967;51.488;6.618;2022-12-18T18:40:59;37.00;;;26.48;;
5882;SDS011;2967;51.488;6.618;2022-12-18T18:46:02;35.20;;;25.50;;
5882;SDS011;2967;51.488;6.618;2022-12-18T18:51:10;36.20;;;25.40;;
5882;SDS011;2967;51.488;6.618;2022-12-18T18:56:23;36.13;;;25.45;;
5882;SDS011;2967;51.488;6.618;2022-12-18T19:01:49;56.70;;;38.20;;
5882;SDS011;2967;51.488;6.618;2022-12-18T19:06:54;37.17;;;26.60;;
5882;SDS011;2967;51.488;6.618;2022-12-18T19:11:58;35.50;;;25.40;;
5882;SDS011;2967;51.488;6.618;2022-12-18T19:17:19;37.70;;;26.70;;
5882;SDS011;2967;51.488;6.618;2022-12-18T19:22:29;47.95;;;34.55;;
5882;SDS011;2967;51.488;6.618;2022-12-18T19:27:34;40.10;;;27.27;;
5882;SDS011;2967;51.488;6.618;2022-12-18T19:32:39;39.92;;;26.83;;
5882;SDS011;2967;51.488;6.618;2022-12-18T19:37:42;35.33;;;26.05;;
5882;SDS011;2967;51.488;6.618;2022-12-18T19:42:46;42.15;;;30.80;;
5882;SDS011;2967;51.488;6.618;2022-12-18T19:47:48;36.13;;;27.38;;
5882;SDS011;2967;51.488;6.618;2022-12-18T19:52:51;38.03;;;26.77;;
5882;SDS011;2967;51.488;6.618;2022-12-18T19:57:57;37.97;;;26.02;;
5882;SDS011;2967;51.488;6.618;2022-12-18T20:03:00;36.57;;;25.57;;
5882;SDS011;2967;51.488;6.618;2022-12-18T20:08:18;36.88;;;25.80;;
5882;SDS011;2967;51.488;6.618;2022-12-18T20:13:22;40.87;;;29.00;;
5882;SDS011;2967;51.488;6.618;2022-12-18T20:18:27;40.97;;;26.83;;
5882;SDS011;2967;51.488;6.618;2022-12-18T20:23:30;51.25;;;32.08;;
5882;SDS011;2967;51.488;6.618;2022-12-18T20:28:38;38.30;;;26.40;;
5882;SDS011;2967;51.488;6.618;2022-12-18T20:33:41;40.57;;;27.93;;
5882;SDS011;2967;51.488;6.618;2022-12-18T20:38:50;36.50;;;25.90;;
5882;SDS011;2967;51.488;6.618;2022-12-18T20:44:02;35.90;;;25.15;;
5882;SDS011;2967;51.488;6.618;2022-12-18T20:49:04;52.67;;;37.13;;
5882;SDS011;2967;51.488;6.618;2022-12-18T20:54:07;38.00;;;26.40;;
5882;SDS011;2967;51.488;6.618;2022-12-18T20:59:13;40.00;;;26.90;;
5882;SDS011;2967;51.488;6.618;2022-12-18T21:04:16;37.72;;;26.48;;
5882;SDS011;2967;51.488;6.618;2022-12-18T21:09:19;39.60;;;26.40;;
5882;SDS011;2967;51.488;6.618;2022-12-18T21:14:24;41.03;;;27.13;;
5882;SDS011;2967;51.488;6.618;2022-12-18T21:19:28;52.30;;;34.55;;
5882;SDS011;2967;51.488;6.618;2022-12-18T21:24:32;39.80;;;26.52;;
5882;SDS011;2967;51.488;6.618;2022-12-18T21:29:36;43.28;;;27.17;;
5882;SDS011;2967;51.488;6.618;2022-12-18T21:34:39;40.37;;;27.50;;
5882;SDS011;2967;51.488;6.618;2022-12-18T21:39:48;40.05;;;26.73;;
5882;SDS011;2967;51.488;6.618;2022-12-18T21:44:52;37.92;;;26.63;;
5882;SDS011;2967;51.488;6.618;2022-12-18T21:49:55;37.90;;;27.03;;
5882;SDS011;2967;51.488;6.618;2022-12-18T21:54:59;40.00;;;27.63;;
5882;SDS011;2967;51.488;6.618;2022-12-18T22:00:11;40.58;;;26.65;;
5882;SDS011;2967;51.488;6.618;2022-12-18T22:05:20;42.22;;;27.10;;
5882;SDS011;2967;51.488;6.618;2022-12-18T22:10:25;39.08;;;27.42;;
5882;SDS011;2967;51.488;6.618;2022-12-18T22:15:30;39.53;;;27.10;;
5882;SDS011;2967;51.488;6.618;2022-12-18T22:20:32;40.10;;;26.07;;
5882;SDS011;2967;51.488;6.618;2022-12-18T22:25:35;45.57;;;32.30;;
5882;SDS011;2967;51.488;6.618;2022-12-18T22:30:41;41.35;;;27.65;;
5882;SDS011;2967;51.488;6.618;2022-12-18T22:35:44;43.03;;;26.70;;
5882;SDS011;2967;51.488;6.618;2022-12-18T22:40:48;38.25;;;25.73;;
5882;SDS011;2967;51.488;6.618;2022-12-18T22:45:52;38.38;;;26.60;;
5882;SDS011;2967;51.488;6.618;2022-12-18T22:50:55;41.65;;;27.95;;
5882;SDS011;2967;51.488;6.618;2022-12-18T22:56:00;40.28;;;27.25;;
5882;SDS011;2967;51.488;6.618;2022-12-18T23:01:05;38.50;;;26.70;;
5882;SDS011;2967;51.488;6.618;2022-12-18T23:06:09;41.00;;;28.30;;
5882;SDS011;2967;51.488;6.618;2022-12-18T23:11:13;41.80;;;28.40;;
5882;SDS011;2967;51.488;6.618;2022-12-18T23:16:20;41.50;;;28.47;;
5882;SDS011;2967;51.488;6.618;2022-12-18T23:21:23;47.00;;;29.60;;
5882;SDS011;2967;51.488;6.618;2022-12-18T23:26:26;44.13;;;30.00;;
5882;SDS011;2967;51.488;6.618;2022-12-18T23:31:31;42.00;;;30.07;;
5882;SDS011;2967;51.488;6.618;2022-12-18T23:36:35;41.80;;;28.90;;
5882;SDS011;2967;51.488;6.618;2022-12-18T23:41:47;41.55;;;27.58;;
5882;SDS011;2967;51.488;6.618;2022-12-18T23:46:51;42.90;;;28.10;;
5882;SDS011;2967;51.488;6.618;2022-12-18T23:51:54;38.27;;;26.47;;
5882;SDS011;2967;51.488;6.618;2022-12-18T23:56:56;41.42;;;27.67;;
